sensor_id;sensor_type;location;lat;lon;timestamp;temperature;humidity
8172;DHT22;4127;47.908;10.850;2024-03-08T00:01:31;-0.30;99.90
8172;DHT22;4127;47.908;10.850;2024-03-08T00:04:23;-0.40;99.90
8172;DHT22;4127;47.908;10.850;2024-03-08T00:07:04;-0.40;99.90
8172;DHT22;4127;47.908;10.850;2024-03-08T00:09:33;-0.50;99.90
8172;DHT22;4127;47.908;10.850;2024-03-08T00:12:09;-0.60;99.90
8172;DHT22;4127;47.908;10.850;2024-03-08T00:14:37;-0.70;99.90
8172;DHT22;4127;47.908;10.850;2024-03-08T00:17:07;-0.60;99.90
8172;DHT22;4127;47.908;10.850;2024-03-08T00:19:36;-0.40;99.90
8172;DHT22;4127;47.908;10.850;2024-03-08T00:22:07;-0.30;99.90
8172;DHT22;4127;47.908;10.850;2024-03-08T00:24:57;-0.20;99.90
8172;DHT22;4127;47.908;10.850;2024-03-08T00:27:28;-0.10;99.90
8172;DHT22;4127;47.908;10.850;2024-03-08T00:30:02;-0.10;99.90
8172;DHT22;4127;47.908;10.850;2024-03-08T00:32:29;0.00;99.90
8172;DHT22;4127;47.908;10.850;2024-03-08T00:35:01;0.00;99.90
8172;DHT22;4127;47.908;10.850;2024-03-08T00:37:31;0.00;99.90
8172;DHT22;4127;47.908;10.850;2024-03-08T00:39:59;0.00;99.90
8172;DHT22;4127;47.908;10.850;2024-03-08T00:42:30;-0.10;99.90
8172;DHT22;4127;47.908;10.850;2024-03-08T00:44:57;-0.20;99.90
8172;DHT22;4127;47.908;10.850;2024-03-08T00:47:27;-0.30;99.90
8172;DHT22;4127;47.908;10.850;2024-03-08T00:50:12;-0.30;99.90
8172;DHT22;4127;47.908;10.850;2024-03-08T00:52:47;-0.30;99.90
8172;DHT22;4127;47.908;10.850;2024-03-08T00:55:17;-0.30;99.90
8172;DHT22;4127;47.908;10.850;2024-03-08T00:57:44;-0.30;99.90
8172;DHT22;4127;47.908;10.850;2024-03-08T01:00:21;-0.20;99.90
8172;DHT22;4127;47.908;10.850;2024-03-08T01:02:51;-0.30;99.90
8172;DHT22;4127;47.908;10.850;2024-03-08T01:05:19;-0.20;99.90
8172;DHT22;4127;47.908;10.850;2024-03-08T01:07:46;-0.30;99.90
8172;DHT22;4127;47.908;10.850;2024-03-08T01:10:19;-0.30;99.90
8172;DHT22;4127;47.908;10.850;2024-03-08T01:12:47;-0.20;99.90
8172;DHT22;4127;47.908;10.850;2024-03-08T01:15:14;-0.20;99.90
8172;DHT22;4127;47.908;10.850;2024-03-08T01:17:55;-0.10;99.90
8172;DHT22;4127;47.908;10.850;2024-03-08T01:20:22;-0.10;99.90
8172;DHT22;4127;47.908;10.850;2024-03-08T01:22:53;0.00;99.90
8172;DHT22;4127;47.908;10.850;2024-03-08T01:25:21;0.00;99.90
8172;DHT22;4127;47.908;10.850;2024-03-08T01:27:49;0.00;99.90
8172;DHT22;4127;47.908;10.850;2024-03-08T01:30:20;-0.10;99.90
8172;DHT22;4127;47.908;10.850;2024-03-08T01:33:13;-0.10;99.90
8172;DHT22;4127;47.908;10.850;2024-03-08T01:35:43;-0.20;99.90
8172;DHT22;4127;47.908;10.850;2024-03-08T01:38:37;-0.20;99.90
8172;DHT22;4127;47.908;10.850;2024-03-08T01:41:29;-0.20;99.90
8172;DHT22;4127;47.908;10.850;2024-03-08T01:44:07;-0.20;99.90
8172;DHT22;4127;47.908;10.850;2024-03-08T01:50:06;-0.30;99.90
8172;DHT22;4127;47.908;10.850;2024-03-08T01:52:38;-0.30;99.90
8172;DHT22;4127;47.908;10.850;2024-03-08T01:55:07;-0.30;99.90
8172;DHT22;4127;47.908;10.850;2024-03-08T01:57:38;-0.20;99.90
8172;DHT22;4127;47.908;10.850;2024-03-08T02:00:08;-0.20;99.90
8172;DHT22;4127;47.908;10.850;2024-03-08T02:02:51;-0.10;99.90
8172;DHT22;4127;47.908;10.850;2024-03-08T02:05:21;-0.10;99.90
8172;DHT22;4127;47.908;10.850;2024-03-08T02:07:54;0.00;99.90
8172;DHT22;4127;47.908;10.850;2024-03-08T02:10:24;0.10;99.90
8172;DHT22;4127;47.908;10.850;2024-03-08T02:12:54;0.10;99.90
8172;DHT22;4127;47.908;10.850;2024-03-08T02:15:56;0.20;99.90
8172;DHT22;4127;47.908;10.850;2024-03-08T02:18:29;0.20;99.90
8172;DHT22;4127;47.908;10.850;2024-03-08T02:21:06;0.20;99.90
8172;DHT22;4127;47.908;10.850;2024-03-08T02:23:35;0.20;99.90
8172;DHT22;4127;47.908;10.850;2024-03-08T02:26:07;0.20;99.90
8172;DHT22;4127;47.908;10.850;2024-03-08T02:28:37;0.20;99.90
8172;DHT22;4127;47.908;10.850;2024-03-08T02:31:08;0.20;99.90
8172;DHT22;4127;47.908;10.850;2024-03-08T02:33:35;0.10;99.90
8172;DHT22;4127;47.908;10.850;2024-03-08T02:36:28;-0.10;99.90
8172;DHT22;4127;47.908;10.850;2024-03-08T02:38:56;-0.20;99.90
8172;DHT22;4127;47.908;10.850;2024-03-08T02:41:47;-0.20;99.90
8172;DHT22;4127;47.908;10.850;2024-03-08T02:44:17;-0.20;99.90
8172;DHT22;4127;47.908;10.850;2024-03-08T02:46:51;-0.20;99.90
8172;DHT22;4127;47.908;10.850;2024-03-08T02:49:27;-0.10;99.90
8172;DHT22;4127;47.908;10.850;2024-03-08T02:51:57;-0.10;99.90
8172;DHT22;4127;47.908;10.850;2024-03-08T02:54:33;-0.20;99.90
8172;DHT22;4127;47.908;10.850;2024-03-08T02:57:11;-0.20;99.90
8172;DHT22;4127;47.908;10.850;2024-03-08T02:59:39;-0.20;99.90
8172;DHT22;4127;47.908;10.850;2024-03-08T03:02:15;-0.10;99.90
8172;DHT22;4127;47.908;10.850;2024-03-08T03:04:43;0.00;99.90
8172;DHT22;4127;47.908;10.850;2024-03-08T03:07:18;0.10;99.90
8172;DHT22;4127;47.908;10.850;2024-03-08T03:09:55;0.10;99.90
8172;DHT22;4127;47.908;10.850;2024-03-08T03:12:30;0.20;99.90
8172;DHT22;4127;47.908;10.850;2024-03-08T03:15:01;0.10;99.90
8172;DHT22;4127;47.908;10.850;2024-03-08T03:17:41;0.10;99.90
8172;DHT22;4127;47.908;10.850;2024-03-08T03:20:09;0.20;99.90
8172;DHT22;4127;47.908;10.850;2024-03-08T03:23:01;-0.10;99.90
8172;DHT22;4127;47.908;10.850;2024-03-08T03:25:41;-0.30;99.90
8172;DHT22;4127;47.908;10.850;2024-03-08T03:28:16;-0.50;99.90
8172;DHT22;4127;47.908;10.850;2024-03-08T03:31:07;-0.50;99.90
8172;DHT22;4127;47.908;10.850;2024-03-08T03:33:46;-0.40;99.90
8172;DHT22;4127;47.908;10.850;2024-03-08T03:39:30;-0.40;99.90
8172;DHT22;4127;47.908;10.850;2024-03-08T03:42:22;-0.50;99.90
8172;DHT22;4127;47.908;10.850;2024-03-08T03:45:06;-0.50;99.90
8172;DHT22;4127;47.908;10.850;2024-03-08T03:47:57;-0.40;99.90
8172;DHT22;4127;47.908;10.850;2024-03-08T03:50:36;-0.50;99.90
8172;DHT22;4127;47.908;10.850;2024-03-08T03:53:25;-0.40;99.90
8172;DHT22;4127;47.908;10.850;2024-03-08T03:56:39;-0.50;99.90
8172;DHT22;4127;47.908;10.850;2024-03-08T03:59:28;-0.40;99.90
8172;DHT22;4127;47.908;10.850;2024-03-08T04:02:13;-0.40;99.90
8172;DHT22;4127;47.908;10.850;2024-03-08T04:05:15;-0.40;99.90
8172;DHT22;4127;47.908;10.850;2024-03-08T04:07:45;-0.40;99.90
8172;DHT22;4127;47.908;10.850;2024-03-08T04:13:19;-0.50;99.90
8172;DHT22;4127;47.908;10.850;2024-03-08T04:16:23;-0.50;99.90
8172;DHT22;4127;47.908;10.850;2024-03-08T04:19:22;-0.30;99.90
8172;DHT22;4127;47.908;10.850;2024-03-08T04:21:46;-0.20;99.90
8172;DHT22;4127;47.908;10.850;2024-03-08T04:24:18;-0.20;99.90
8172;DHT22;4127;47.908;10.850;2024-03-08T04:26:50;-0.10;99.90
8172;DHT22;4127;47.908;10.850;2024-03-08T04:29:20;0.00;99.90
8172;DHT22;4127;47.908;10.850;2024-03-08T04:34:52;0.10;99.90
8172;DHT22;4127;47.908;10.850;2024-03-08T04:37:20;-0.10;99.90
8172;DHT22;4127;47.908;10.850;2024-03-08T04:40:17;-0.20;99.90
8172;DHT22;4127;47.908;10.850;2024-03-08T04:42:46;-0.20;99.90
8172;DHT22;4127;47.908;10.850;2024-03-08T04:45:14;-0.10;99.90
8172;DHT22;4127;47.908;10.850;2024-03-08T04:47:49;-0.20;99.90
8172;DHT22;4127;47.908;10.850;2024-03-08T04:50:28;-0.30;99.90
8172;DHT22;4127;47.908;10.850;2024-03-08T04:53:04;-0.40;99.90
8172;DHT22;4127;47.908;10.850;2024-03-08T04:55:54;-0.50;99.90
8172;DHT22;4127;47.908;10.850;2024-03-08T04:58:45;-0.60;99.90
8172;DHT22;4127;47.908;10.850;2024-03-08T05:01:37;-0.60;99.90
8172;DHT22;4127;47.908;10.850;2024-03-08T05:04:26;-0.60;99.90
8172;DHT22;4127;47.908;10.850;2024-03-08T05:07:34;-0.60;99.90
8172;DHT22;4127;47.908;10.850;2024-03-08T05:10:02;-0.60;99.90
8172;DHT22;4127;47.908;10.850;2024-03-08T05:12:39;-0.50;99.90
8172;DHT22;4127;47.908;10.850;2024-03-08T05:15:07;-0.40;99.90
8172;DHT22;4127;47.908;10.850;2024-03-08T05:17:34;-0.30;99.90
8172;DHT22;4127;47.908;10.850;2024-03-08T05:20:29;-0.40;99.90
8172;DHT22;4127;47.908;10.850;2024-03-08T05:23:13;-0.50;99.90
8172;DHT22;4127;47.908;10.850;2024-03-08T05:32:41;-0.30;99.90
8172;DHT22;4127;47.908;10.850;2024-03-08T05:35:36;-0.30;99.90
8172;DHT22;4127;47.908;10.850;2024-03-08T05:38:05;-0.20;99.90
8172;DHT22;4127;47.908;10.850;2024-03-08T05:40:47;-0.20;99.90
8172;DHT22;4127;47.908;10.850;2024-03-08T05:43:14;-0.10;99.90
8172;DHT22;4127;47.908;10.850;2024-03-08T05:45:44;-0.10;99.90
8172;DHT22;4127;47.908;10.850;2024-03-08T05:48:11;-0.10;99.90
8172;DHT22;4127;47.908;10.850;2024-03-08T05:50:43;-0.10;99.90
8172;DHT22;4127;47.908;10.850;2024-03-08T05:53:32;-0.10;99.90
8172;DHT22;4127;47.908;10.850;2024-03-08T05:56:01;0.00;99.90
8172;DHT22;4127;47.908;10.850;2024-03-08T05:58:29;0.00;99.90
8172;DHT22;4127;47.908;10.850;2024-03-08T06:00:58;0.00;99.90
8172;DHT22;4127;47.908;10.850;2024-03-08T06:03:25;0.00;99.90
8172;DHT22;4127;47.908;10.850;2024-03-08T06:05:56;0.10;99.90
8172;DHT22;4127;47.908;10.850;2024-03-08T06:09:02;0.10;99.90
8172;DHT22;4127;47.908;10.850;2024-03-08T06:12:06;0.10;99.90
8172;DHT22;4127;47.908;10.850;2024-03-08T06:14:58;0.10;99.90
8172;DHT22;4127;47.908;10.850;2024-03-08T06:18:04;0.10;99.90
8172;DHT22;4127;47.908;10.850;2024-03-08T06:21:19;0.10;99.90
8172;DHT22;4127;47.908;10.850;2024-03-08T06:24:07;0.10;99.90
8172;DHT22;4127;47.908;10.850;2024-03-08T06:26:37;0.10;99.90
8172;DHT22;4127;47.908;10.850;2024-03-08T06:29:16;0.10;99.90
8172;DHT22;4127;47.908;10.850;2024-03-08T06:32:05;0.10;99.90
8172;DHT22;4127;47.908;10.850;2024-03-08T06:34:55;0.10;99.90
8172;DHT22;4127;47.908;10.850;2024-03-08T06:37:25;0.10;99.90
8172;DHT22;4127;47.908;10.850;2024-03-08T06:40:04;0.10;99.90
8172;DHT22;4127;47.908;10.850;2024-03-08T06:42:36;0.10;99.90
8172;DHT22;4127;47.908;10.850;2024-03-08T06:45:29;0.10;99.90
8172;DHT22;4127;47.908;10.850;2024-03-08T06:48:40;0.20;99.90
8172;DHT22;4127;47.908;10.850;2024-03-08T06:51:16;0.20;99.90
8172;DHT22;4127;47.908;10.850;2024-03-08T06:53:44;0.20;99.90
8172;DHT22;4127;47.908;10.850;2024-03-08T06:56:19;0.30;99.90
8172;DHT22;4127;47.908;10.850;2024-03-08T06:58:46;0.30;99.90
8172;DHT22;4127;47.908;10.850;2024-03-08T07:01:22;0.30;99.90
8172;DHT22;4127;47.908;10.850;2024-03-08T07:04:18;0.20;99.90
8172;DHT22;4127;47.908;10.850;2024-03-08T07:06:50;0.20;99.90
8172;DHT22;4127;47.908;10.850;2024-03-08T07:09:37;-0.10;99.90
8172;DHT22;4127;47.908;10.850;2024-03-08T07:12:09;-0.20;99.90
8172;DHT22;4127;47.908;10.850;2024-03-08T07:14:59;-0.40;99.90
8172;DHT22;4127;47.908;10.850;2024-03-08T07:17:32;-0.60;99.90
8172;DHT22;4127;47.908;10.850;2024-03-08T07:20:16;-0.60;99.90
8172;DHT22;4127;47.908;10.850;2024-03-08T07:22:56;-0.50;99.90
8172;DHT22;4127;47.908;10.850;2024-03-08T07:25:51;-0.60;99.90
8172;DHT22;4127;47.908;10.850;2024-03-08T07:28:41;-0.50;99.90
8172;DHT22;4127;47.908;10.850;2024-03-08T07:31:31;-0.40;99.90
8172;DHT22;4127;47.908;10.850;2024-03-08T07:34:42;-0.30;99.90
8172;DHT22;4127;47.908;10.850;2024-03-08T07:41:37;-0.40;99.90
8172;DHT22;4127;47.908;10.850;2024-03-08T07:44:36;-0.50;99.90
8172;DHT22;4127;47.908;10.850;2024-03-08T07:47:20;-0.40;99.90
8172;DHT22;4127;47.908;10.850;2024-03-08T07:50:22;-0.20;99.90
8172;DHT22;4127;47.908;10.850;2024-03-08T07:52:50;0.00;99.90
8172;DHT22;4127;47.908;10.850;2024-03-08T07:55:20;0.20;99.90
8172;DHT22;4127;47.908;10.850;2024-03-08T07:57:51;0.30;99.90
8172;DHT22;4127;47.908;10.850;2024-03-08T08:00:18;0.30;99.90
8172;DHT22;4127;47.908;10.850;2024-03-08T08:02:48;0.10;99.90
8172;DHT22;4127;47.908;10.850;2024-03-08T08:05:16;0.10;99.90
8172;DHT22;4127;47.908;10.850;2024-03-08T08:07:48;0.20;99.90
8172;DHT22;4127;47.908;10.850;2024-03-08T08:10:20;0.20;99.90
8172;DHT22;4127;47.908;10.850;2024-03-08T08:12:52;0.20;99.90
8172;DHT22;4127;47.908;10.850;2024-03-08T08:15:20;0.40;99.90
8172;DHT22;4127;47.908;10.850;2024-03-08T08:17:47;0.40;99.90
8172;DHT22;4127;47.908;10.850;2024-03-08T08:20:28;0.30;99.90
8172;DHT22;4127;47.908;10.850;2024-03-08T08:23:02;0.30;99.90
8172;DHT22;4127;47.908;10.850;2024-03-08T08:25:35;0.30;99.90
8172;DHT22;4127;47.908;10.850;2024-03-08T08:28:03;0.50;99.90
8172;DHT22;4127;47.908;10.850;2024-03-08T08:30:40;0.70;99.90
8172;DHT22;4127;47.908;10.850;2024-03-08T08:33:16;0.80;99.90
8172;DHT22;4127;47.908;10.850;2024-03-08T08:35:46;1.00;99.90
8172;DHT22;4127;47.908;10.850;2024-03-08T08:38:14;0.70;99.90
8172;DHT22;4127;47.908;10.850;2024-03-08T08:41:01;0.40;99.90
8172;DHT22;4127;47.908;10.850;2024-03-08T08:43:32;0.40;99.90
8172;DHT22;4127;47.908;10.850;2024-03-08T08:46:01;0.60;99.90
8172;DHT22;4127;47.908;10.850;2024-03-08T08:48:29;0.90;99.90
8172;DHT22;4127;47.908;10.850;2024-03-08T08:50:58;1.00;99.90
8172;DHT22;4127;47.908;10.850;2024-03-08T08:53:28;1.20;99.90
8172;DHT22;4127;47.908;10.850;2024-03-08T08:55:57;1.10;99.90
8172;DHT22;4127;47.908;10.850;2024-03-08T08:58:24;0.90;99.90
8172;DHT22;4127;47.908;10.850;2024-03-08T09:00:56;1.00;99.90
8172;DHT22;4127;47.908;10.850;2024-03-08T09:03:24;1.10;99.90
8172;DHT22;4127;47.908;10.850;2024-03-08T09:05:51;1.20;99.90
8172;DHT22;4127;47.908;10.850;2024-03-08T09:08:18;1.30;99.90
8172;DHT22;4127;47.908;10.850;2024-03-08T09:10:46;1.40;99.90
8172;DHT22;4127;47.908;10.850;2024-03-08T09:13:17;1.60;99.90
8172;DHT22;4127;47.908;10.850;2024-03-08T09:15:57;1.60;99.90
8172;DHT22;4127;47.908;10.850;2024-03-08T09:18:24;1.40;99.90
8172;DHT22;4127;47.908;10.850;2024-03-08T09:20:52;0.90;99.90
8172;DHT22;4127;47.908;10.850;2024-03-08T09:23:20;0.70;99.90
8172;DHT22;4127;47.908;10.850;2024-03-08T09:26:03;0.60;99.90
8172;DHT22;4127;47.908;10.850;2024-03-08T09:28:48;0.50;99.90
8172;DHT22;4127;47.908;10.850;2024-03-08T09:31:34;0.60;99.90
8172;DHT22;4127;47.908;10.850;2024-03-08T09:34:01;0.60;99.90
8172;DHT22;4127;47.908;10.850;2024-03-08T09:36:28;0.70;99.90
8172;DHT22;4127;47.908;10.850;2024-03-08T09:39:04;0.60;99.90
8172;DHT22;4127;47.908;10.850;2024-03-08T09:41:45;0.70;99.90
8172;DHT22;4127;47.908;10.850;2024-03-08T09:44:36;0.70;99.90
8172;DHT22;4127;47.908;10.850;2024-03-08T09:47:08;0.70;99.90
8172;DHT22;4127;47.908;10.850;2024-03-08T09:49:39;1.10;99.90
8172;DHT22;4127;47.908;10.850;2024-03-08T09:52:07;1.30;99.90
8172;DHT22;4127;47.908;10.850;2024-03-08T09:54:35;1.70;99.90
8172;DHT22;4127;47.908;10.850;2024-03-08T09:57:04;1.90;99.90
8172;DHT22;4127;47.908;10.850;2024-03-08T09:59:31;2.00;99.90
8172;DHT22;4127;47.908;10.850;2024-03-08T10:02:08;1.20;99.90
8172;DHT22;4127;47.908;10.850;2024-03-08T10:04:40;1.20;99.90
8172;DHT22;4127;47.908;10.850;2024-03-08T10:07:38;0.90;99.90
8172;DHT22;4127;47.908;10.850;2024-03-08T10:10:18;1.00;99.90
8172;DHT22;4127;47.908;10.850;2024-03-08T10:12:46;1.10;99.90
8172;DHT22;4127;47.908;10.850;2024-03-08T10:15:17;1.30;99.90
8172;DHT22;4127;47.908;10.850;2024-03-08T10:17:53;1.40;99.90
8172;DHT22;4127;47.908;10.850;2024-03-08T10:20:22;1.30;99.90
8172;DHT22;4127;47.908;10.850;2024-03-08T10:22:50;1.70;99.90
8172;DHT22;4127;47.908;10.850;2024-03-08T10:25:33;2.00;99.90
8172;DHT22;4127;47.908;10.850;2024-03-08T10:28:03;1.80;99.90
8172;DHT22;4127;47.908;10.850;2024-03-08T10:30:32;1.60;99.90
8172;DHT22;4127;47.908;10.850;2024-03-08T10:33:02;1.40;99.90
8172;DHT22;4127;47.908;10.850;2024-03-08T10:35:52;1.40;99.90
8172;DHT22;4127;47.908;10.850;2024-03-08T10:38:40;1.60;99.90
8172;DHT22;4127;47.908;10.850;2024-03-08T10:41:15;1.90;99.90
8172;DHT22;4127;47.908;10.850;2024-03-08T10:49:17;2.20;99.90
8172;DHT22;4127;47.908;10.850;2024-03-08T10:51:49;2.20;99.90
8172;DHT22;4127;47.908;10.850;2024-03-08T10:54:19;2.30;99.90
8172;DHT22;4127;47.908;10.850;2024-03-08T10:56:48;2.40;99.90
8172;DHT22;4127;47.908;10.850;2024-03-08T10:59:18;2.40;99.90
8172;DHT22;4127;47.908;10.850;2024-03-08T11:01:46;2.50;99.90
8172;DHT22;4127;47.908;10.850;2024-03-08T11:04:13;2.50;99.90
8172;DHT22;4127;47.908;10.850;2024-03-08T11:09:36;2.80;99.90
8172;DHT22;4127;47.908;10.850;2024-03-08T11:12:28;3.20;99.90
8172;DHT22;4127;47.908;10.850;2024-03-08T11:14:59;3.50;99.90
8172;DHT22;4127;47.908;10.850;2024-03-08T11:19:59;3.90;99.90
8172;DHT22;4127;47.908;10.850;2024-03-08T11:22:33;4.10;99.90
8172;DHT22;4127;47.908;10.850;2024-03-08T11:25:09;4.30;99.90
8172;DHT22;4127;47.908;10.850;2024-03-08T11:27:37;4.30;99.90
8172;DHT22;4127;47.908;10.850;2024-03-08T11:30:08;4.50;99.90
8172;DHT22;4127;47.908;10.850;2024-03-08T11:32:47;4.40;99.90
8172;DHT22;4127;47.908;10.850;2024-03-08T11:35:21;4.60;99.90
8172;DHT22;4127;47.908;10.850;2024-03-08T11:37:50;4.80;99.90
8172;DHT22;4127;47.908;10.850;2024-03-08T11:40:18;5.00;99.90
8172;DHT22;4127;47.908;10.850;2024-03-08T11:42:47;5.40;99.90
8172;DHT22;4127;47.908;10.850;2024-03-08T11:45:16;5.50;99.90
8172;DHT22;4127;47.908;10.850;2024-03-08T11:47:44;5.50;99.90
8172;DHT22;4127;47.908;10.850;2024-03-08T11:50:17;5.40;99.90
8172;DHT22;4127;47.908;10.850;2024-03-08T11:52:46;5.80;99.90
8172;DHT22;4127;47.908;10.850;2024-03-08T11:55:14;6.00;99.90
8172;DHT22;4127;47.908;10.850;2024-03-08T11:57:41;6.00;99.90
8172;DHT22;4127;47.908;10.850;2024-03-08T12:00:16;5.90;99.90
8172;DHT22;4127;47.908;10.850;2024-03-08T12:03:07;6.10;99.90
8172;DHT22;4127;47.908;10.850;2024-03-08T12:05:35;6.30;99.90
8172;DHT22;4127;47.908;10.850;2024-03-08T12:08:02;6.50;99.90
8172;DHT22;4127;47.908;10.850;2024-03-08T12:10:29;6.80;99.90
8172;DHT22;4127;47.908;10.850;2024-03-08T12:12:58;6.80;99.90
8172;DHT22;4127;47.908;10.850;2024-03-08T12:15:31;7.00;99.90
8172;DHT22;4127;47.908;10.850;2024-03-08T12:18:00;6.70;99.90
8172;DHT22;4127;47.908;10.850;2024-03-08T12:20:28;6.90;99.90
8172;DHT22;4127;47.908;10.850;2024-03-08T12:22:59;7.10;99.90
8172;DHT22;4127;47.908;10.850;2024-03-08T12:25:33;7.30;99.90
8172;DHT22;4127;47.908;10.850;2024-03-08T12:28:10;7.00;99.90
8172;DHT22;4127;47.908;10.850;2024-03-08T12:30:58;7.40;99.90
8172;DHT22;4127;47.908;10.850;2024-03-08T12:33:26;7.40;99.90
8172;DHT22;4127;47.908;10.850;2024-03-08T12:35:55;7.30;99.90
8172;DHT22;4127;47.908;10.850;2024-03-08T12:38:23;7.50;99.90
8172;DHT22;4127;47.908;10.850;2024-03-08T12:40:58;7.40;99.90
8172;DHT22;4127;47.908;10.850;2024-03-08T12:43:26;7.50;99.90
8172;DHT22;4127;47.908;10.850;2024-03-08T12:45:57;7.50;99.90
8172;DHT22;4127;47.908;10.850;2024-03-08T12:48:24;7.60;99.90
8172;DHT22;4127;47.908;10.850;2024-03-08T12:50:51;7.80;99.90
8172;DHT22;4127;47.908;10.850;2024-03-08T12:53:20;7.80;99.90
8172;DHT22;4127;47.908;10.850;2024-03-08T12:55:48;7.70;99.90
8172;DHT22;4127;47.908;10.850;2024-03-08T12:58:15;7.90;99.90
8172;DHT22;4127;47.908;10.850;2024-03-08T13:00:43;7.80;99.90
8172;DHT22;4127;47.908;10.850;2024-03-08T13:03:10;7.80;99.90
8172;DHT22;4127;47.908;10.850;2024-03-08T13:05:38;7.80;99.90
8172;DHT22;4127;47.908;10.850;2024-03-08T13:08:09;8.00;99.90
8172;DHT22;4127;47.908;10.850;2024-03-08T13:10:40;7.70;99.90
8172;DHT22;4127;47.908;10.850;2024-03-08T13:13:11;8.00;99.90
8172;DHT22;4127;47.908;10.850;2024-03-08T13:15:44;8.00;99.90
8172;DHT22;4127;47.908;10.850;2024-03-08T13:18:12;7.90;99.90
8172;DHT22;4127;47.908;10.850;2024-03-08T13:20:39;8.10;99.90
8172;DHT22;4127;47.908;10.850;2024-03-08T13:23:13;8.40;99.90
8172;DHT22;4127;47.908;10.850;2024-03-08T13:25:41;8.30;99.90
8172;DHT22;4127;47.908;10.850;2024-03-08T13:28:08;8.40;99.90
8172;DHT22;4127;47.908;10.850;2024-03-08T13:30:35;8.40;99.90
8172;DHT22;4127;47.908;10.850;2024-03-08T13:33:03;8.50;99.90
8172;DHT22;4127;47.908;10.850;2024-03-08T13:35:32;8.50;99.90
8172;DHT22;4127;47.908;10.850;2024-03-08T13:37:59;8.50;99.90
8172;DHT22;4127;47.908;10.850;2024-03-08T13:40:28;8.40;99.90
8172;DHT22;4127;47.908;10.850;2024-03-08T13:42:55;8.40;99.90
8172;DHT22;4127;47.908;10.850;2024-03-08T13:45:23;8.50;99.90
8172;DHT22;4127;47.908;10.850;2024-03-08T13:47:52;8.70;99.90
8172;DHT22;4127;47.908;10.850;2024-03-08T13:50:21;8.60;99.90
8172;DHT22;4127;47.908;10.850;2024-03-08T13:52:49;8.70;99.90
8172;DHT22;4127;47.908;10.850;2024-03-08T13:55:22;8.70;99.90
8172;DHT22;4127;47.908;10.850;2024-03-08T13:57:50;8.80;99.90
8172;DHT22;4127;47.908;10.850;2024-03-08T14:00:20;8.90;99.90
8172;DHT22;4127;47.908;10.850;2024-03-08T14:02:52;8.90;99.90
8172;DHT22;4127;47.908;10.850;2024-03-08T14:05:20;8.90;99.90
8172;DHT22;4127;47.908;10.850;2024-03-08T14:07:48;9.00;99.90
8172;DHT22;4127;47.908;10.850;2024-03-08T14:10:16;8.90;99.90
8172;DHT22;4127;47.908;10.850;2024-03-08T14:12:48;9.00;99.90
8172;DHT22;4127;47.908;10.850;2024-03-08T14:15:17;8.90;99.90
8172;DHT22;4127;47.908;10.850;2024-03-08T14:17:44;9.00;99.90
8172;DHT22;4127;47.908;10.850;2024-03-08T14:20:14;9.00;99.90
8172;DHT22;4127;47.908;10.850;2024-03-08T14:22:41;9.00;99.90
8172;DHT22;4127;47.908;10.850;2024-03-08T14:25:08;9.00;99.90
8172;DHT22;4127;47.908;10.850;2024-03-08T14:27:45;9.00;99.90
8172;DHT22;4127;47.908;10.850;2024-03-08T14:30:13;9.00;99.90
8172;DHT22;4127;47.908;10.850;2024-03-08T14:32:44;8.90;99.90
8172;DHT22;4127;47.908;10.850;2024-03-08T14:35:14;8.80;99.90
8172;DHT22;4127;47.908;10.850;2024-03-08T14:37:41;8.90;99.90
8172;DHT22;4127;47.908;10.850;2024-03-08T14:40:10;9.00;99.90
8172;DHT22;4127;47.908;10.850;2024-03-08T14:42:37;9.00;99.90
8172;DHT22;4127;47.908;10.850;2024-03-08T14:45:04;9.10;99.90
8172;DHT22;4127;47.908;10.850;2024-03-08T14:47:32;9.00;99.90
8172;DHT22;4127;47.908;10.850;2024-03-08T14:50:01;9.00;99.90
8172;DHT22;4127;47.908;10.850;2024-03-08T14:52:28;8.90;99.90
8172;DHT22;4127;47.908;10.850;2024-03-08T14:54:56;8.90;99.90
8172;DHT22;4127;47.908;10.850;2024-03-08T14:57:23;8.90;99.90
8172;DHT22;4127;47.908;10.850;2024-03-08T14:59:50;8.80;99.90
8172;DHT22;4127;47.908;10.850;2024-03-08T15:02:17;8.80;99.90
8172;DHT22;4127;47.908;10.850;2024-03-08T15:04:49;8.80;99.90
8172;DHT22;4127;47.908;10.850;2024-03-08T15:07:24;8.70;99.90
8172;DHT22;4127;47.908;10.850;2024-03-08T15:09:57;8.70;99.90
8172;DHT22;4127;47.908;10.850;2024-03-08T15:12:24;8.80;99.90
8172;DHT22;4127;47.908;10.850;2024-03-08T15:14:53;8.70;99.90
8172;DHT22;4127;47.908;10.850;2024-03-08T15:17:22;8.70;99.90
8172;DHT22;4127;47.908;10.850;2024-03-08T15:19:50;8.70;99.90
8172;DHT22;4127;47.908;10.850;2024-03-08T15:22:18;8.60;99.90
8172;DHT22;4127;47.908;10.850;2024-03-08T15:24:45;8.50;99.90
8172;DHT22;4127;47.908;10.850;2024-03-08T15:27:12;8.50;99.90
8172;DHT22;4127;47.908;10.850;2024-03-08T15:29:40;8.40;99.90
8172;DHT22;4127;47.908;10.850;2024-03-08T15:32:07;8.40;99.90
8172;DHT22;4127;47.908;10.850;2024-03-08T15:34:36;8.40;99.90
8172;DHT22;4127;47.908;10.850;2024-03-08T15:37:05;8.40;99.90
8172;DHT22;4127;47.908;10.850;2024-03-08T15:39:33;8.40;99.90
8172;DHT22;4127;47.908;10.850;2024-03-08T15:42:01;8.40;99.90
8172;DHT22;4127;47.908;10.850;2024-03-08T15:44:28;8.30;99.90
8172;DHT22;4127;47.908;10.850;2024-03-08T15:46:55;8.20;99.90
8172;DHT22;4127;47.908;10.850;2024-03-08T15:49:23;8.10;99.90
8172;DHT22;4127;47.908;10.850;2024-03-08T15:51:53;8.10;99.90
8172;DHT22;4127;47.908;10.850;2024-03-08T15:54:21;8.00;99.90
8172;DHT22;4127;47.908;10.850;2024-03-08T15:56:48;8.00;99.90
8172;DHT22;4127;47.908;10.850;2024-03-08T15:59:16;8.00;99.90
8172;DHT22;4127;47.908;10.850;2024-03-08T16:01:43;7.90;99.90
8172;DHT22;4127;47.908;10.850;2024-03-08T16:04:15;7.80;99.90
8172;DHT22;4127;47.908;10.850;2024-03-08T16:06:42;7.80;99.90
8172;DHT22;4127;47.908;10.850;2024-03-08T16:09:11;7.70;99.90
8172;DHT22;4127;47.908;10.850;2024-03-08T16:11:42;7.70;99.90
8172;DHT22;4127;47.908;10.850;2024-03-08T16:14:11;7.70;99.90
8172;DHT22;4127;47.908;10.850;2024-03-08T16:16:38;7.60;99.90
8172;DHT22;4127;47.908;10.850;2024-03-08T16:19:06;7.50;99.90
8172;DHT22;4127;47.908;10.850;2024-03-08T16:21:34;7.60;99.90
8172;DHT22;4127;47.908;10.850;2024-03-08T16:24:02;7.50;99.90
8172;DHT22;4127;47.908;10.850;2024-03-08T16:26:30;7.40;99.90
8172;DHT22;4127;47.908;10.850;2024-03-08T16:29:02;7.30;99.90
8172;DHT22;4127;47.908;10.850;2024-03-08T16:31:31;7.30;99.90
8172;DHT22;4127;47.908;10.850;2024-03-08T16:33:58;7.20;99.90
8172;DHT22;4127;47.908;10.850;2024-03-08T16:36:25;7.10;99.90
8172;DHT22;4127;47.908;10.850;2024-03-08T16:38:53;7.00;99.90
8172;DHT22;4127;47.908;10.850;2024-03-08T16:41:20;6.90;99.90
8172;DHT22;4127;47.908;10.850;2024-03-08T16:43:48;6.80;99.90
8172;DHT22;4127;47.908;10.850;2024-03-08T16:46:16;6.70;99.90
8172;DHT22;4127;47.908;10.850;2024-03-08T16:48:43;6.70;99.90
8172;DHT22;4127;47.908;10.850;2024-03-08T16:51:10;6.60;99.90
8172;DHT22;4127;47.908;10.850;2024-03-08T16:53:38;6.50;99.90
8172;DHT22;4127;47.908;10.850;2024-03-08T16:56:08;6.40;99.90
8172;DHT22;4127;47.908;10.850;2024-03-08T16:58:40;6.40;99.90
8172;DHT22;4127;47.908;10.850;2024-03-08T17:01:09;6.30;99.90
8172;DHT22;4127;47.908;10.850;2024-03-08T17:03:37;6.10;99.90
8172;DHT22;4127;47.908;10.850;2024-03-08T17:06:21;6.00;99.90
8172;DHT22;4127;47.908;10.850;2024-03-08T17:08:50;5.80;99.90
8172;DHT22;4127;47.908;10.850;2024-03-08T17:11:18;5.70;99.90
8172;DHT22;4127;47.908;10.850;2024-03-08T17:13:48;5.60;99.90
8172;DHT22;4127;47.908;10.850;2024-03-08T17:16:15;5.60;99.90